Time,TemperatureF,DewpointF,PressureIn,WindDirection,WindDirectionDegrees,WindSpeedMPH,WindSpeedGustMPH,Humidity,HourlyPrecipIn,Conditions,Clouds,dailyrainin,SoftwareType,DateUTC
2013-08-17 00:12:00,59.0,44.0,-100.00,NNE,20,6.0,13.0,57,0.00,,,0.00,,2013-08-17 06:12:00,
2013-08-17 00:21:00,59.0,44.0,-100.00,East,84,5.0,18.0,57,0.00,,,0.00,,2013-08-17 06:21:00,
2013-08-17 00:42:00,59.0,43.0,-100.00,East,79,12.0,23.0,55,0.00,,,0.00,,2013-08-17 06:42:00,
2013-08-17 00:52:00,58.0,43.0,-100.00,North,354,4.0,14.0,57,0.00,,,0.00,,2013-08-17 06:52:00,
2013-08-17 01:11:00,58.0,44.0,-100.00,NE,54,2.0,11.0,60,0.00,,,0.00,,2013-08-17 07:11:00,
2013-08-17 01:21:00,57.0,44.0,-100.00,NNE,29,3.0,8.0,61,0.00,,,0.00,,2013-08-17 07:21:00,
2013-08-17 01:41:00,57.0,43.0,-100.00,NNW,339,4.0,7.0,60,0.00,,,0.00,,2013-08-17 07:41:00,
2013-08-17 01:52:00,57.0,44.0,-100.00,NW,310,1.0,8.0,61,0.00,,,0.00,,2013-08-17 07:52:00,
2013-08-17 02:11:00,57.0,45.0,-100.00,NW,318,2.0,6.0,63,0.00,,,0.00,,2013-08-17 08:11:00,
2013-08-17 02:21:00,56.0,44.0,-100.00,NW,324,2.0,4.0,64,0.00,,,0.00,,2013-08-17 08:21:00,
2013-08-17 02:41:00,56.0,44.0,-100.00,NNW,327,3.0,5.0,65,0.00,,,0.00,,2013-08-17 08:41:00,
2013-08-17 02:52:00,56.0,44.0,-100.00,NW,308,4.0,7.0,65,0.00,,,0.00,,2013-08-17 08:52:00,
2013-08-17 03:11:00,56.0,44.0,-100.00,NW,319,4.0,6.0,64,0.00,,,0.00,,2013-08-17 09:11:00,
2013-08-17 03:21:00,56.0,44.0,-100.00,NW,310,4.0,7.0,64,0.00,,,0.00,,2013-08-17 09:21:00,
2013-08-17 03:43:00,56.0,44.0,-100.00,NW,314,4.0,8.0,63,0.00,,,0.00,,2013-08-17 09:43:00,
2013-08-17 03:53:00,56.0,44.0,-100.00,NNW,334,5.0,10.0,64,0.00,,,0.00,,2013-08-17 09:53:00,
2013-08-17 04:12:00,56.0,44.0,-100.00,WNW,303,5.0,9.0,64,0.00,,,0.00,,2013-08-17 10:12:00,
2013-08-17 04:23:00,56.0,44.0,-100.00,NW,316,6.0,10.0,64,0.00,,,0.00,,2013-08-17 10:23:00,
2013-08-17 04:42:00,56.0,44.0,-100.00,NNW,338,4.0,7.0,64,0.00,,,0.00,,2013-08-17 10:42:00,
2013-08-17 04:52:00,56.0,44.0,-100.00,NW,314,5.0,8.0,63,0.00,,,0.00,,2013-08-17 10:52:00,
2013-08-17 05:11:00,56.0,44.0,-100.00,NW,313,4.0,7.0,65,0.00,,,0.00,,2013-08-17 11:11:00,
2013-08-17 05:21:00,55.0,44.0,-100.00,NW,308,6.0,7.0,67,0.00,,,0.00,,2013-08-17 11:21:00,
2013-08-17 05:42:00,55.0,45.0,-100.00,NW,311,6.0,10.0,68,0.00,,,0.00,,2013-08-17 11:42:00,
2013-08-17 05:52:00,54.0,45.0,-100.00,WNW,301,5.0,9.0,72,0.00,,,0.00,,2013-08-17 11:52:00,
2013-08-17 06:11:00,54.0,45.0,-100.00,NW,318,5.0,8.0,72,0.00,,,0.00,,2013-08-17 12:11:00,
2013-08-17 06:21:00,54.0,46.0,-100.00,NW,310,6.0,8.0,74,0.00,,,0.00,,2013-08-17 12:21:00,
2013-08-17 06:41:00,54.0,45.0,-100.00,NW,316,5.0,10.0,72,0.00,,,0.00,,2013-08-17 12:41:00,
2013-08-17 06:52:00,54.0,45.0,-100.00,NNW,329,5.0,9.0,71,0.00,,,0.00,,2013-08-17 12:52:00,
2013-08-17 07:11:00,53.0,46.0,-100.00,WNW,297,4.0,13.0,76,0.00,,,0.00,,2013-08-17 13:11:00,
2013-08-17 07:21:00,52.0,46.0,-100.00,NW,305,5.0,8.0,80,0.00,,,0.00,,2013-08-17 13:21:00,
2013-08-17 07:41:00,52.0,46.0,-100.00,NW,307,7.0,11.0,80,0.00,,,0.00,,2013-08-17 13:41:00,
2013-08-17 07:52:00,52.0,47.0,-100.00,WNW,302,6.0,10.0,84,0.00,,,0.00,,2013-08-17 13:52:00,
2013-08-17 08:11:00,52.0,47.0,-100.00,WNW,301,8.0,10.0,83,0.00,,,0.00,,2013-08-17 14:11:00,
2013-08-17 08:21:00,53.0,48.0,-100.00,WNW,301,4.0,8.0,83,0.00,,,0.00,,2013-08-17 14:21:00,
2013-08-17 08:41:00,55.0,48.0,-100.00,NW,323,3.0,7.0,77,0.00,,,0.00,,2013-08-17 14:41:00,
2013-08-17 08:52:00,55.0,48.0,-100.00,NW,313,3.0,7.0,76,0.00,,,0.00,,2013-08-17 14:52:00,
2013-08-17 09:11:00,54.0,47.0,-100.00,NW,316,4.0,6.0,77,0.00,,,0.00,,2013-08-17 15:11:00,
2013-08-17 09:22:00,54.0,47.0,-100.00,NW,314,4.0,8.0,76,0.00,,,0.00,,2013-08-17 15:22:00,
2013-08-17 09:43:00,54.0,47.0,-100.00,NW,325,1.0,6.0,78,0.00,,,0.00,,2013-08-17 15:43:00,
2013-08-17 09:53:00,55.0,48.0,-100.00,NW,324,2.0,6.0,78,0.00,,,0.00,,2013-08-17 15:53:00,
2013-08-17 10:12:00,56.0,50.0,-100.00,NW,316,3.0,6.0,79,0.00,,,0.00,,2013-08-17 16:12:00,
2013-08-17 10:23:00,56.0,49.0,-100.00,NW,322,2.0,6.0,77,0.00,,,0.00,,2013-08-17 16:23:00,
2013-08-17 10:42:00,56.0,50.0,-100.00,NW,326,2.0,7.0,79,0.00,,,0.00,,2013-08-17 16:42:00,
2013-08-17 10:53:00,57.0,50.0,-100.00,NW,325,3.0,7.0,78,0.00,,,0.00,,2013-08-17 16:53:00,
2013-08-17 11:12:00,58.0,51.0,-100.00,NW,326,3.0,6.0,77,0.00,,,0.00,,2013-08-17 17:12:00,
2013-08-17 11:23:00,58.0,48.0,-100.00,NW,320,4.0,8.0,69,0.00,,,0.00,,2013-08-17 17:23:00,
2013-08-17 11:42:00,59.0,48.0,-100.00,NW,308,3.0,8.0,68,0.00,,,0.00,,2013-08-17 17:42:00,
2013-08-17 11:52:00,59.0,48.0,-100.00,NNW,330,3.0,7.0,67,0.00,,,0.00,,2013-08-17 17:52:00,
2013-08-17 12:11:00,60.0,49.0,-100.00,NW,316,4.0,8.0,67,0.00,,,0.00,,2013-08-17 18:11:00,
2013-08-17 12:21:00,60.0,49.0,-100.00,NNW,328,2.0,9.0,66,0.00,,,0.00,,2013-08-17 18:21:00,
2013-08-17 12:41:00,61.0,50.0,-100.00,NW,322,4.0,6.0,66,0.00,,,0.00,,2013-08-17 18:41:00,
2013-08-17 12:52:00,62.0,50.0,-100.00,NW,320,2.0,6.0,65,0.00,,,0.00,,2013-08-17 18:52:00,
2013-08-17 13:11:00,62.0,49.0,-100.00,NW,306,3.0,9.0,62,0.00,,,0.00,,2013-08-17 19:11:00,
2013-08-17 13:21:00,62.0,50.0,-100.00,NW,310,3.0,9.0,64,0.00,,,0.00,,2013-08-17 19:21:00,
2013-08-17 13:41:00,64.0,49.0,-100.00,NW,316,6.0,10.0,59,0.00,,,0.00,,2013-08-17 19:41:00,
2013-08-17 13:52:00,65.0,50.0,-100.00,NW,317,6.0,10.0,58,0.00,,,0.00,,2013-08-17 19:52:00,
2013-08-17 14:11:00,64.0,48.0,-100.00,NW,304,8.0,13.0,56,0.00,,,0.00,,2013-08-17 20:11:00,
2013-08-17 14:21:00,65.0,49.0,-100.00,NNW,328,6.0,11.0,56,0.00,,,0.00,,2013-08-17 20:21:00,
2013-08-17 14:41:00,64.0,47.0,-100.00,NW,314,6.0,13.0,54,0.00,,,0.00,,2013-08-17 20:41:00,
2013-08-17 14:52:00,64.0,47.0,-100.00,NW,320,5.0,13.0,54,0.00,,,0.00,,2013-08-17 20:52:00,
2013-08-17 15:11:00,66.0,47.0,-100.00,NW,318,6.0,12.0,51,0.00,,,0.00,,2013-08-17 21:11:00,
2013-08-17 15:21:00,65.0,47.0,-100.00,NW,312,6.0,12.0,53,0.00,,,0.00,,2013-08-17 21:21:00,
2013-08-17 15:42:00,65.0,46.0,-100.00,NW,318,7.0,11.0,50,0.00,,,0.00,,2013-08-17 21:42:00,
2013-08-17 15:53:00,63.0,46.0,-100.00,NNW,330,8.0,15.0,53,0.00,,,0.00,,2013-08-17 21:53:00,
2013-08-17 16:12:00,63.0,46.0,-100.00,NNW,339,6.0,10.0,54,0.00,,,0.00,,2013-08-17 22:12:00,
2013-08-17 16:22:00,62.0,46.0,-100.00,NW,316,6.0,11.0,55,0.00,,,0.00,,2013-08-17 22:22:00,
2013-08-17 16:42:00,64.0,47.0,-100.00,NNW,328,6.0,11.0,53,0.00,,,0.00,,2013-08-17 22:42:00,
2013-08-17 16:52:00,63.0,44.0,-100.00,NW,305,11.0,19.0,50,0.00,,,0.00,,2013-08-17 22:52:00,
2013-08-17 17:11:00,64.0,45.0,-100.00,NW,326,10.0,16.0,50,0.00,,,0.00,,2013-08-17 23:11:00,
2013-08-17 17:22:00,66.0,45.0,-100.00,NW,318,11.0,18.0,47,0.00,,,0.00,,2013-08-17 23:22:00,
2013-08-17 17:42:00,65.0,44.0,-100.00,NW,307,10.0,17.0,46,0.00,,,0.00,,2013-08-17 23:42:00,
2013-08-17 17:52:00,66.0,45.0,-100.00,NW,307,9.0,17.0,46,0.00,,,0.00,,2013-08-17 23:52:00,
2013-08-17 18:11:00,65.0,44.0,-100.00,NW,309,8.0,19.0,47,0.00,,,0.00,,2013-08-18 00:11:00,
2013-08-17 18:21:00,65.0,45.0,-100.00,NNW,343,8.0,17.0,49,0.00,,,0.00,,2013-08-18 00:21:00,
2013-08-17 18:41:00,65.0,45.0,-100.00,WNW,299,9.0,16.0,48,0.00,,,0.00,,2013-08-18 00:41:00,
2013-08-17 18:52:00,64.0,43.0,-100.00,NW,312,7.0,15.0,47,0.00,,,0.00,,2013-08-18 00:52:00,
2013-08-17 19:11:00,64.0,41.0,-100.00,NW,321,6.0,13.0,43,0.00,,,0.00,,2013-08-18 01:11:00,
2013-08-17 19:21:00,63.0,40.0,-100.00,NW,308,7.0,16.0,43,0.00,,,0.00,,2013-08-18 01:21:00,
2013-08-17 19:41:00,63.0,41.0,-100.00,NNW,336,8.0,15.0,44,0.00,,,0.00,,2013-08-18 01:41:00,
2013-08-17 19:52:00,62.0,41.0,-100.00,NW,310,5.0,12.0,46,0.00,,,0.00,,2013-08-18 01:52:00,
2013-08-17 20:11:00,61.0,39.0,-100.00,WNW,299,5.0,13.0,44,0.00,,,0.00,,2013-08-18 02:11:00,
2013-08-17 20:21:00,61.0,38.0,-100.00,WNW,299,6.0,17.0,43,0.00,,,0.00,,2013-08-18 02:21:00,
2013-08-17 20:41:00,60.0,37.0,-100.00,NNW,343,4.0,13.0,43,0.00,,,0.00,,2013-08-18 02:41:00,
2013-08-17 20:52:00,59.0,37.0,-100.00,NW,314,6.0,13.0,44,0.00,,,0.00,,2013-08-18 02:52:00,
2013-08-17 21:11:00,59.0,38.0,-100.00,North,354,5.0,11.0,45,0.00,,,0.00,,2013-08-18 03:11:00,
2013-08-17 21:21:00,59.0,38.0,-100.00,North,349,3.0,9.0,45,0.00,,,0.00,,2013-08-18 03:21:00,
2013-08-17 21:43:00,58.0,38.0,-100.00,NW,326,3.0,8.0,47,0.00,,,0.00,,2013-08-18 03:43:00,
2013-08-17 21:53:00,58.0,38.0,-100.00,NNW,332,1.0,5.0,47,0.00,,,0.00,,2013-08-18 03:53:00,
2013-08-17 22:02:00,-999.0,-99.9,-100.00,NNW,330,1.0,7.0,-999,0.00,,,0.00,,2013-08-18 04:02:00,
2013-08-17 22:12:00,58.0,39.0,-100.00,NNW,330,1.0,7.0,49,0.00,,,0.00,,2013-08-18 04:12:00,
2013-08-17 22:23:00,58.0,39.0,-100.00,NNW,345,2.0,6.0,50,0.00,,,0.00,,2013-08-18 04:23:00,
2013-08-17 22:42:00,58.0,40.0,-100.00,NNW,332,3.0,7.0,51,0.00,,,0.00,,2013-08-18 04:42:00,
2013-08-17 22:53:00,58.0,40.0,-100.00,NNW,340,2.0,7.0,51,0.00,,,0.00,,2013-08-18 04:53:00,
2013-08-17 23:12:00,58.0,40.0,-100.00,NNW,336,3.0,6.0,51,0.00,,,0.00,,2013-08-18 05:12:00,
2013-08-17 23:22:00,58.0,40.0,-100.00,NNW,327,3.0,6.0,52,0.00,,,0.00,,2013-08-18 05:22:00,
2013-08-17 23:42:00,57.0,40.0,-100.00,NW,316,5.0,7.0,52,0.00,,,0.00,,2013-08-18 05:42:00,
2013-08-17 23:52:00,57.0,40.0,-100.00,NW,325,4.0,7.0,52,0.00,,,0.00,,2013-08-18 05:52:00,